createdAt,value
2023-07-25T00:02:04.601Z,2.13
2023-07-25T00:04:32.534Z,1.40
2023-07-25T00:07:00.384Z,1.27
2023-07-25T00:09:28.227Z,1.10
2023-07-25T00:11:56.143Z,1.38
2023-07-25T00:14:24.041Z,1.33
2023-07-25T00:16:52.019Z,1.50
2023-07-25T00:19:21.699Z,1.20
2023-07-25T00:21:49.630Z,1.38
2023-07-25T00:24:17.561Z,1.35
2023-07-25T00:26:45.706Z,1.38
2023-07-25T00:29:13.675Z,1.30
2023-07-25T00:31:41.608Z,1.40
2023-07-25T00:34:09.441Z,1.85
2023-07-25T00:36:38.672Z,1.58
2023-07-25T00:39:06.748Z,1.40
2023-07-25T00:41:34.728Z,1.20
2023-07-25T00:44:02.636Z,1.13
2023-07-25T00:46:30.548Z,1.83
2023-07-25T00:48:58.599Z,1.83
2023-07-25T00:51:27.216Z,1.35
2023-07-25T00:53:57.479Z,1.70
2023-07-25T00:56:26.046Z,1.60
2023-07-25T00:58:54.275Z,2.15
2023-07-25T01:01:23.872Z,1.75
2023-07-25T01:03:54.517Z,1.80
2023-07-25T01:06:22.812Z,1.10
2023-07-25T01:08:50.981Z,1.50
2023-07-25T01:11:20.701Z,1.80
2023-07-25T01:13:49.057Z,1.70
2023-07-25T01:16:19.817Z,1.83
2023-07-25T01:18:48.240Z,2.25
2023-07-25T01:21:16.410Z,1.53
2023-07-25T01:23:45.284Z,1.52
2023-07-25T01:26:14.417Z,1.92
2023-07-25T01:28:42.245Z,1.45
2023-07-25T01:31:10.176Z,1.38
2023-07-25T01:33:38.112Z,1.63
2023-07-25T01:36:06.624Z,2.00
2023-07-25T01:38:34.575Z,1.80
2023-07-25T01:41:02.503Z,1.58
2023-07-25T01:43:31.834Z,1.52
2023-07-25T01:46:00.072Z,1.30
2023-07-25T01:48:27.977Z,1.50
2023-07-25T01:50:55.961Z,1.33
2023-07-25T01:53:23.790Z,1.77
2023-07-25T01:55:51.722Z,1.40
2023-07-25T01:58:19.703Z,1.20
2023-07-25T02:00:47.903Z,1.65
2023-07-25T02:03:19.213Z,1.98
2023-07-25T02:05:47.401Z,1.25
2023-07-25T02:08:15.560Z,1.38
2023-07-25T02:10:43.465Z,1.43
2023-07-25T02:13:11.361Z,1.80
2023-07-25T02:15:39.521Z,1.58
2023-07-25T02:18:08.736Z,1.40
2023-07-25T02:20:36.730Z,2.00
2023-07-25T02:23:04.827Z,1.67
2023-07-25T02:25:33.034Z,1.40
2023-07-25T02:28:00.966Z,2.30
2023-07-25T02:30:29.070Z,1.75
2023-07-25T02:32:56.951Z,2.05
2023-07-25T02:35:26.161Z,1.60
2023-07-25T02:37:54.031Z,1.83
2023-07-25T02:40:21.958Z,1.90
2023-07-25T02:42:49.795Z,1.40
2023-07-25T02:45:17.783Z,1.77
2023-07-25T02:47:45.848Z,1.47
2023-07-25T02:50:13.728Z,1.65
2023-07-25T02:52:42.995Z,1.75
2023-07-25T02:55:11.105Z,1.50
2023-07-25T02:57:40.202Z,1.40
2023-07-25T03:00:08.933Z,1.23
2023-07-25T03:02:36.728Z,1.50
2023-07-25T03:05:04.831Z,1.60
2023-07-25T03:07:32.684Z,2.00
2023-07-25T03:10:01.891Z,1.40
2023-07-25T03:12:29.806Z,1.53
2023-07-25T03:14:57.785Z,1.60
2023-07-25T03:17:25.790Z,2.10
2023-07-25T03:19:53.856Z,1.48
2023-07-25T03:22:22.184Z,1.20
2023-07-25T03:24:50.825Z,2.37
2023-07-25T03:27:20.818Z,1.35
2023-07-25T03:29:48.820Z,2.00
2023-07-25T03:32:16.717Z,1.30
2023-07-25T03:34:44.612Z,1.73
2023-07-25T03:37:12.534Z,1.60
2023-07-25T03:39:40.429Z,1.20
2023-07-25T03:42:08.683Z,1.73
2023-07-25T03:44:38.012Z,1.10
2023-07-25T03:47:06.641Z,1.67
2023-07-25T03:49:34.539Z,1.30
2023-07-25T03:52:02.508Z,1.10
2023-07-25T03:54:30.416Z,1.40
2023-07-25T03:56:58.314Z,0.88
2023-07-25T03:59:26.367Z,1.02
2023-07-25T04:01:55.681Z,1.10
2023-07-25T04:04:23.780Z,1.20
2023-07-25T04:06:51.671Z,0.90
2023-07-25T04:09:19.773Z,0.93
2023-07-25T04:11:47.818Z,0.90
2023-07-25T04:14:15.704Z,1.00
2023-07-25T04:16:43.688Z,1.27
2023-07-25T04:19:16.041Z,0.90
2023-07-25T04:21:43.954Z,0.95
2023-07-25T04:24:11.800Z,1.05
2023-07-25T04:26:39.739Z,1.20
2023-07-25T04:29:07.629Z,0.90
2023-07-25T04:31:35.674Z,0.90
2023-07-25T04:34:03.558Z,1.20
2023-07-25T04:36:32.877Z,1.00
2023-07-25T04:39:00.802Z,1.10
2023-07-25T04:41:28.808Z,1.17
2023-07-25T04:43:56.640Z,0.93
2023-07-25T04:46:24.633Z,1.10
2023-07-25T04:48:52.706Z,0.90
2023-07-25T04:51:20.592Z,0.80
2023-07-25T04:53:49.921Z,1.05
2023-07-25T04:56:17.973Z,0.90
2023-07-25T04:58:46.240Z,0.80
2023-07-25T05:01:14.368Z,0.93
2023-07-25T05:03:42.273Z,0.90
2023-07-25T05:06:10.274Z,0.90
2023-07-25T05:08:38.136Z,1.02
2023-07-25T05:11:07.367Z,1.02
2023-07-25T05:13:35.302Z,0.85
2023-07-25T05:16:03.131Z,0.80
2023-07-25T05:18:31.064Z,0.75
2023-07-25T05:20:58.858Z,0.77
2023-07-25T05:23:26.795Z,0.80
2023-07-25T05:25:54.657Z,0.95
2023-07-25T05:28:24.035Z,0.60
2023-07-25T05:30:51.938Z,0.70
2023-07-25T05:33:19.810Z,0.85
2023-07-25T05:35:47.782Z,0.60
2023-07-25T05:38:15.695Z,0.80
2023-07-25T05:40:43.604Z,0.80
2023-07-25T05:43:13.486Z,1.15
2023-07-25T05:45:42.717Z,0.80
2023-07-25T05:48:10.572Z,0.70
2023-07-25T05:50:38.466Z,0.70
2023-07-25T05:53:06.413Z,0.60
2023-07-25T05:55:34.801Z,0.50
2023-07-25T05:58:02.613Z,0.70
2023-07-25T06:00:30.452Z,0.73
2023-07-25T06:02:59.708Z,0.80
2023-07-25T06:05:27.543Z,0.63
2023-07-25T06:07:55.352Z,0.77
2023-07-25T06:10:23.274Z,0.70
2023-07-25T06:12:51.177Z,0.85
2023-07-25T06:15:18.975Z,0.80
2023-07-25T06:17:46.779Z,0.83
2023-07-25T06:20:16.253Z,0.90
2023-07-25T06:22:44.577Z,0.70
2023-07-25T06:25:14.037Z,0.63
2023-07-25T06:27:41.918Z,0.60
2023-07-25T06:30:10.364Z,0.90
2023-07-25T06:32:39.623Z,0.70
2023-07-25T06:35:07.977Z,0.80
2023-07-25T06:37:38.703Z,0.70
2023-07-25T06:40:07.804Z,0.63
2023-07-25T06:42:35.658Z,0.60
2023-07-25T06:45:05.892Z,0.80
2023-07-25T06:47:33.875Z,0.82
2023-07-25T06:50:01.976Z,1.23
2023-07-25T06:52:29.977Z,1.27
2023-07-25T06:54:59.895Z,0.60
2023-07-25T06:57:29.958Z,0.65
2023-07-25T06:59:57.924Z,1.10
2023-07-25T07:02:25.963Z,0.95
2023-07-25T07:04:54.024Z,0.70
2023-07-25T07:07:22.001Z,0.67
2023-07-25T07:09:49.980Z,0.77
2023-07-25T07:12:22.194Z,0.70
2023-07-25T07:14:50.057Z,0.90
2023-07-25T07:17:17.964Z,0.80
2023-07-25T07:19:45.818Z,0.80
2023-07-25T07:22:13.653Z,0.70
2023-07-25T07:24:42.454Z,0.75
2023-07-25T07:27:10.306Z,0.90
2023-07-25T07:29:40.122Z,0.55
2023-07-25T07:32:08.802Z,0.70
2023-07-25T07:34:36.797Z,1.13
2023-07-25T07:37:05.131Z,0.90
2023-07-25T07:39:33.287Z,0.60
2023-07-25T07:42:01.273Z,0.98
2023-07-25T07:44:29.144Z,0.90
2023-07-25T07:46:58.422Z,0.77
2023-07-25T07:49:26.525Z,0.90
2023-07-25T07:52:09.778Z,0.80
2023-07-25T07:54:41.129Z,0.70
2023-07-25T07:57:09.066Z,0.70
2023-07-25T07:59:36.945Z,0.70
2023-07-25T08:02:06.312Z,0.70
2023-07-25T08:04:34.254Z,0.82
2023-07-25T08:07:02.268Z,0.80
2023-07-25T08:09:30.163Z,0.80
2023-07-25T08:11:58.152Z,0.70
2023-07-25T08:14:26.216Z,0.80
2023-07-25T08:16:54.080Z,0.70
2023-07-25T08:19:23.358Z,0.80
2023-07-25T08:21:54.505Z,0.70
2023-07-25T08:24:22.559Z,0.70
2023-07-25T08:26:50.363Z,0.88
2023-07-25T08:29:18.162Z,0.70
2023-07-25T08:31:46.041Z,0.70
2023-07-25T08:34:13.904Z,0.87
2023-07-25T08:36:43.114Z,0.90
2023-07-25T08:39:11.058Z,0.90
2023-07-25T08:41:44.965Z,0.63
2023-07-25T08:44:14.164Z,0.50
2023-07-25T08:46:46.114Z,0.80
2023-07-25T08:49:21.421Z,0.80
2023-07-25T08:51:54.502Z,0.65
2023-07-25T08:54:30.350Z,0.60
2023-07-25T08:56:59.294Z,0.70
2023-07-25T08:59:28.163Z,0.70
2023-07-25T09:01:56.831Z,0.70
2023-07-25T09:04:26.387Z,0.60
2023-07-25T09:06:55.949Z,1.10
2023-07-25T09:09:24.238Z,0.80
2023-07-25T09:11:52.766Z,0.80
2023-07-25T09:14:20.660Z,1.10
2023-07-25T09:16:49.657Z,0.70
2023-07-25T09:19:17.845Z,0.65
2023-07-25T09:21:49.965Z,0.60
2023-07-25T09:24:19.243Z,0.70
2023-07-25T09:26:51.559Z,0.82
2023-07-25T09:29:21.981Z,1.08
2023-07-25T09:31:50.188Z,1.00
2023-07-25T09:34:19.359Z,1.02
2023-07-25T09:36:48.726Z,1.00
2023-07-25T09:39:16.659Z,0.80
2023-07-25T09:41:46.997Z,1.00
2023-07-25T09:44:15.053Z,0.90
2023-07-25T09:46:52.558Z,1.00
2023-07-25T09:49:23.034Z,1.57
2023-07-25T09:51:59.768Z,0.80
2023-07-25T09:54:27.602Z,1.10
2023-07-25T09:56:56.843Z,0.95
2023-07-25T09:59:24.835Z,1.00
2023-07-25T10:01:53.074Z,1.00
2023-07-25T10:04:22.502Z,0.80
2023-07-25T10:06:53.725Z,1.13
2023-07-25T10:09:21.692Z,0.73
2023-07-25T10:11:51.689Z,0.60
2023-07-25T10:14:21.344Z,0.73
2023-07-25T10:16:49.283Z,1.23
2023-07-25T10:19:17.402Z,1.23
2023-07-25T10:21:50.133Z,0.52
2023-07-25T10:24:19.638Z,0.80
2023-07-25T10:26:54.865Z,0.50
2023-07-25T10:29:42.784Z,0.60
2023-07-25T10:32:13.742Z,0.70
2023-07-25T10:34:53.009Z,0.60
2023-07-25T10:37:24.357Z,0.77
2023-07-25T10:40:11.012Z,0.60
2023-07-25T10:43:05.642Z,0.73
2023-07-25T10:45:53.860Z,0.77
2023-07-25T10:48:36.245Z,0.77
2023-07-25T10:51:08.268Z,0.73
2023-07-25T10:53:37.096Z,0.60
2023-07-25T10:56:16.290Z,0.73
2023-07-25T10:59:06.758Z,0.60
2023-07-25T11:01:44.619Z,0.98
2023-07-25T11:04:27.923Z,0.60
2023-07-25T11:06:57.711Z,0.50
2023-07-25T11:09:27.824Z,0.50
2023-07-25T11:11:57.396Z,0.70
2023-07-25T11:14:25.261Z,0.43
2023-07-25T11:16:56.113Z,0.70
2023-07-25T11:19:28.329Z,0.80
2023-07-25T11:21:56.477Z,0.63
2023-07-25T11:24:24.475Z,0.70
2023-07-25T11:26:52.426Z,0.70
2023-07-25T11:29:21.407Z,0.63
2023-07-25T11:31:50.816Z,0.70
2023-07-25T11:34:21.803Z,0.63
2023-07-25T11:36:49.950Z,0.63
2023-07-25T11:39:18.098Z,0.60
2023-07-25T11:41:47.244Z,0.50
2023-07-25T11:44:16.840Z,0.60
2023-07-25T11:46:49.262Z,0.68
2023-07-25T11:49:28.241Z,0.50
2023-07-25T11:52:08.014Z,0.50
2023-07-25T11:54:36.463Z,0.50
2023-07-25T11:57:06.049Z,0.60
2023-07-25T11:59:41.003Z,0.60
2023-07-25T12:02:09.713Z,0.60
2023-07-25T12:04:45.050Z,0.50
2023-07-25T12:07:15.231Z,0.80
2023-07-25T12:09:51.156Z,0.63
2023-07-25T12:12:19.342Z,0.60
2023-07-25T12:14:56.147Z,0.90
2023-07-25T12:17:24.217Z,0.63
2023-07-25T12:19:55.095Z,0.60
2023-07-25T12:22:24.527Z,1.00
2023-07-25T12:24:52.525Z,0.70
2023-07-25T12:27:20.936Z,0.90
2023-07-25T12:29:48.865Z,0.90
2023-07-25T12:32:16.801Z,0.80
2023-07-25T12:34:46.218Z,1.33
2023-07-25T12:37:14.105Z,0.77
2023-07-25T12:39:43.282Z,0.80
2023-07-25T12:42:11.149Z,0.77
2023-07-25T12:44:38.954Z,0.80
2023-07-25T12:47:07.245Z,1.00
2023-07-25T12:49:35.074Z,0.70
2023-07-25T12:52:02.951Z,0.80
2023-07-25T12:54:30.996Z,0.80
2023-07-25T12:57:00.370Z,0.70
2023-07-25T12:59:28.235Z,0.87
2023-07-25T13:01:56.546Z,0.70
2023-07-25T13:04:25.068Z,0.75
2023-07-25T13:06:53.300Z,0.80
2023-07-25T13:09:21.413Z,0.80
2023-07-25T13:11:49.273Z,0.70
2023-07-25T13:14:18.476Z,1.00
2023-07-25T13:16:46.433Z,0.80
2023-07-25T13:19:14.940Z,0.77
2023-07-25T13:21:42.922Z,0.90
2023-07-25T13:24:10.872Z,0.90
2023-07-25T13:26:38.991Z,1.00
2023-07-25T13:29:06.952Z,1.17
2023-07-25T13:31:36.274Z,0.85
2023-07-25T13:34:04.206Z,0.80
2023-07-25T13:36:32.129Z,0.90
2023-07-25T13:38:59.931Z,1.20
2023-07-25T13:41:27.880Z,0.80
2023-07-25T13:43:55.829Z,0.80
2023-07-25T13:46:23.680Z,0.80
2023-07-25T13:48:52.944Z,1.20
2023-07-25T13:51:20.823Z,0.98
2023-07-25T13:53:48.641Z,0.93
2023-07-25T13:56:16.571Z,1.00
2023-07-25T13:58:47.195Z,1.10
2023-07-25T14:01:15.487Z,1.00
2023-07-25T14:03:43.486Z,0.90
2023-07-25T14:06:12.729Z,0.93
2023-07-25T14:08:40.723Z,1.30
2023-07-25T14:11:08.623Z,1.55
2023-07-25T14:13:36.579Z,0.90
2023-07-25T14:16:04.617Z,1.10
2023-07-25T14:18:32.557Z,0.80
2023-07-25T14:21:01.371Z,1.20
2023-07-25T14:23:30.533Z,1.20
2023-07-25T14:25:58.461Z,1.30
2023-07-25T14:28:26.401Z,1.50
2023-07-25T14:30:54.307Z,1.30
2023-07-25T14:33:22.447Z,1.40
2023-07-25T14:35:50.346Z,1.10
2023-07-25T14:38:19.358Z,1.37
2023-07-25T14:40:48.651Z,1.10
2023-07-25T14:43:16.597Z,1.20
2023-07-25T14:45:44.523Z,1.30
2023-07-25T14:48:12.561Z,1.10
2023-07-25T14:50:40.911Z,1.73
2023-07-25T14:53:08.747Z,1.00
2023-07-25T14:55:36.628Z,1.20
2023-07-25T14:58:05.907Z,0.90
2023-07-25T15:00:33.839Z,1.33
2023-07-25T15:03:01.946Z,0.90
2023-07-25T15:05:29.955Z,1.27
2023-07-25T15:07:57.889Z,0.90
2023-07-25T15:10:25.811Z,0.95
2023-07-25T15:12:53.647Z,1.13
2023-07-25T15:15:23.765Z,1.10
2023-07-25T15:17:52.025Z,1.02
2023-07-25T15:20:21.713Z,0.90
2023-07-25T15:22:49.725Z,1.10
2023-07-25T15:25:17.647Z,0.90
2023-07-25T15:27:45.688Z,0.90
2023-07-25T15:30:13.858Z,0.98
2023-07-25T15:32:43.380Z,0.98
2023-07-25T15:35:11.708Z,0.98
2023-07-25T15:37:39.693Z,1.00
2023-07-25T15:40:09.331Z,1.00
2023-07-25T15:42:37.220Z,1.02
2023-07-25T15:45:05.832Z,0.90
2023-07-25T15:47:33.761Z,1.02
2023-07-25T15:50:03.253Z,1.35
2023-07-25T15:52:31.209Z,1.20
2023-07-25T15:55:00.095Z,1.17
2023-07-25T15:57:28.243Z,1.40
2023-07-25T15:59:56.066Z,1.40
2023-07-25T16:02:23.948Z,1.15
2023-07-25T16:04:51.863Z,0.93
2023-07-25T16:07:21.050Z,0.82
2023-07-25T16:09:48.936Z,1.20
2023-07-25T16:12:17.377Z,1.20
2023-07-25T16:14:45.270Z,1.00
2023-07-25T16:17:13.093Z,1.00
2023-07-25T16:19:41.313Z,1.00
2023-07-25T16:22:09.629Z,1.13
2023-07-25T16:24:38.789Z,1.10
2023-07-25T16:27:06.812Z,1.65
2023-07-25T16:29:34.710Z,1.20
2023-07-25T16:32:02.670Z,1.13
2023-07-25T16:34:31.463Z,0.93
2023-07-25T16:36:59.619Z,1.30
2023-07-25T16:39:28.741Z,1.20
2023-07-25T16:41:58.516Z,1.20
2023-07-25T16:44:26.538Z,1.10
2023-07-25T16:46:54.366Z,1.27
2023-07-25T16:49:22.304Z,1.20
2023-07-25T16:51:50.678Z,1.05
2023-07-25T16:54:18.989Z,1.03
2023-07-25T16:56:46.854Z,1.10
2023-07-25T16:59:16.082Z,1.27
2023-07-25T17:01:43.989Z,1.30
2023-07-25T17:04:11.978Z,1.38
2023-07-25T17:06:39.805Z,1.40
2023-07-25T17:09:07.650Z,1.70
2023-07-25T17:11:35.691Z,1.30
2023-07-25T17:14:03.862Z,1.20
2023-07-25T17:16:33.085Z,1.20
2023-07-25T17:19:01.107Z,1.00
2023-07-25T17:21:40.638Z,1.05
2023-07-25T17:24:09.363Z,1.20
2023-07-25T17:26:37.364Z,1.38
2023-07-25T17:29:06.786Z,1.10
2023-07-25T17:31:36.421Z,1.10
2023-07-25T17:34:04.766Z,2.05
2023-07-25T17:36:32.637Z,1.38
2023-07-25T17:39:00.504Z,1.33
2023-07-25T17:41:29.914Z,1.20
2023-07-25T17:43:58.362Z,1.20
2023-07-25T17:46:26.106Z,1.25
2023-07-25T17:48:57.663Z,1.48
2023-07-25T17:51:26.632Z,1.65
2023-07-25T17:53:54.381Z,1.27
2023-07-25T17:56:22.179Z,1.40
2023-07-25T17:58:50.079Z,1.13
2023-07-25T18:01:18.160Z,1.25
2023-07-25T18:03:46.001Z,1.23
2023-07-25T18:06:15.371Z,1.60
2023-07-25T18:08:43.188Z,1.10
2023-07-25T18:11:11.073Z,1.20
2023-07-25T18:13:38.933Z,1.27
2023-07-25T18:16:07.565Z,1.10
2023-07-25T18:18:35.752Z,1.38
2023-07-25T18:21:03.661Z,1.47
2023-07-25T18:23:35.197Z,1.30
2023-07-25T18:26:03.806Z,1.60
2023-07-25T18:28:31.791Z,1.65
2023-07-25T18:31:00.172Z,1.75
2023-07-25T18:33:28.050Z,1.20
2023-07-25T18:36:01.749Z,1.30
2023-07-25T18:38:29.726Z,1.50
2023-07-25T18:40:59.018Z,1.30
2023-07-25T18:43:26.934Z,1.17
2023-07-25T18:45:54.708Z,1.20
2023-07-25T18:48:23.225Z,1.65
2023-07-25T18:50:51.237Z,1.48
2023-07-25T18:53:19.252Z,1.20
2023-07-25T18:55:49.215Z,1.33
2023-07-25T18:58:18.439Z,1.43
2023-07-25T19:00:46.326Z,1.35
2023-07-25T19:03:14.178Z,1.27
2023-07-25T19:05:42.238Z,1.27
2023-07-25T19:08:10.038Z,1.20
2023-07-25T19:10:37.861Z,1.40
2023-07-25T19:13:05.690Z,1.60
2023-07-25T19:15:34.966Z,2.20
2023-07-25T19:18:02.848Z,1.15
2023-07-25T19:20:30.765Z,1.35
2023-07-25T19:23:00.519Z,1.27
2023-07-25T19:25:32.876Z,1.75
2023-07-25T19:28:01.040Z,1.60
2023-07-25T19:30:29.149Z,1.15
2023-07-25T19:32:58.590Z,1.30
2023-07-25T19:35:26.688Z,1.40
2023-07-25T19:37:54.632Z,1.15
2023-07-25T19:40:22.484Z,1.33
2023-07-25T19:42:50.325Z,1.13
2023-07-25T19:45:18.299Z,1.30
2023-07-25T19:47:46.227Z,1.00
2023-07-25T19:50:15.505Z,1.10
2023-07-25T19:52:43.374Z,1.20
2023-07-25T19:55:11.512Z,0.95
2023-07-25T19:57:39.539Z,1.10
2023-07-25T20:00:09.839Z,0.97
2023-07-25T20:02:37.827Z,0.90
2023-07-25T20:05:06.375Z,0.85
2023-07-25T20:07:35.638Z,1.00
2023-07-25T20:10:03.749Z,0.80
2023-07-25T20:12:31.782Z,1.20
2023-07-25T20:14:59.795Z,1.35
2023-07-25T20:17:27.653Z,1.00
2023-07-25T20:19:55.393Z,0.90
2023-07-25T20:22:23.198Z,0.90
2023-07-25T20:24:52.329Z,0.67
2023-07-25T20:27:20.525Z,0.90
2023-07-25T20:29:48.326Z,0.90
2023-07-25T20:32:16.161Z,2.38
2023-07-25T20:34:43.993Z,1.65
2023-07-25T20:37:11.782Z,1.00
2023-07-25T20:39:39.651Z,0.93
2023-07-25T20:42:09.118Z,1.13
2023-07-25T20:44:37.165Z,0.85
2023-07-25T20:47:05.578Z,0.98
2023-07-25T20:49:33.415Z,0.90
2023-07-25T20:52:01.251Z,0.80
2023-07-25T20:54:28.986Z,1.00
2023-07-25T20:56:56.942Z,1.00
2023-07-25T20:59:26.194Z,1.15
2023-07-25T21:01:54.098Z,0.80
2023-07-25T21:04:22.001Z,1.20
2023-07-25T21:06:49.922Z,1.15
2023-07-25T21:09:17.822Z,1.08
2023-07-25T21:11:45.626Z,0.80
2023-07-25T21:14:13.456Z,1.00
2023-07-25T21:16:42.708Z,1.10
2023-07-25T21:19:10.509Z,1.00
2023-07-25T21:21:38.363Z,1.08
2023-07-25T21:24:06.954Z,1.23
2023-07-25T21:26:35.065Z,1.10
2023-07-25T21:29:03.165Z,0.90
2023-07-25T21:31:31.035Z,0.98
2023-07-25T21:34:02.407Z,1.95
2023-07-25T21:36:31.024Z,1.40
2023-07-25T21:38:59.222Z,1.10
2023-07-25T21:41:27.085Z,1.15
2023-07-25T21:43:54.944Z,1.10
2023-07-25T21:46:22.887Z,1.20
2023-07-25T21:48:50.795Z,1.10
2023-07-25T21:51:20.140Z,1.20
2023-07-25T21:53:48.021Z,1.30
2023-07-25T21:56:15.855Z,1.17
2023-07-25T21:58:43.662Z,1.23
2023-07-25T22:01:11.636Z,1.30
2023-07-25T22:03:39.617Z,1.30
2023-07-25T22:06:07.768Z,1.20
2023-07-25T22:08:37.460Z,1.40
2023-07-25T22:11:05.413Z,2.08
2023-07-25T22:13:33.232Z,1.30
2023-07-25T22:16:01.126Z,1.13
2023-07-25T22:18:29.022Z,1.10
2023-07-25T22:20:59.205Z,1.33
2023-07-25T22:23:27.238Z,1.50
2023-07-25T22:26:02.276Z,1.20
2023-07-25T22:28:30.176Z,1.10
2023-07-25T22:31:01.518Z,1.20
2023-07-25T22:33:29.481Z,1.38
2023-07-25T22:35:57.430Z,1.30
2023-07-25T22:38:25.296Z,1.35
2023-07-25T22:40:53.148Z,1.50
2023-07-25T22:43:22.585Z,1.50
2023-07-25T22:45:51.083Z,1.40
2023-07-25T22:48:18.966Z,1.60
2023-07-25T22:50:46.790Z,1.40
2023-07-25T22:53:14.649Z,1.70
2023-07-25T22:55:42.509Z,1.30
2023-07-25T22:58:10.321Z,1.48
2023-07-25T23:00:39.489Z,1.30
2023-07-25T23:03:07.292Z,1.40
2023-07-25T23:05:35.166Z,1.30
2023-07-25T23:08:02.911Z,1.35
2023-07-25T23:10:30.757Z,1.52
2023-07-25T23:12:58.755Z,1.30
2023-07-25T23:15:26.688Z,1.30
2023-07-25T23:17:55.973Z,1.50
2023-07-25T23:20:23.917Z,1.40
2023-07-25T23:22:51.750Z,1.33
2023-07-25T23:25:19.775Z,1.38
2023-07-25T23:27:47.813Z,1.30
2023-07-25T23:30:15.693Z,1.30
2023-07-25T23:32:43.563Z,1.50
2023-07-25T23:35:12.950Z,1.20
2023-07-25T23:37:40.823Z,1.33
2023-07-25T23:40:10.371Z,1.38
2023-07-25T23:42:38.264Z,1.37
2023-07-25T23:45:07.018Z,1.42
2023-07-25T23:47:34.842Z,1.52
2023-07-25T23:50:02.599Z,1.08
2023-07-25T23:52:31.787Z,1.45
2023-07-25T23:54:59.693Z,1.00
2023-07-25T23:57:27.532Z,1.30
2023-07-25T23:59:55.448Z,1.33
